Time;durP1;ratioP1;P1;durP2;ratioP2;P2;SDS_P1;SDS_P2;PMS_P1;PMS_P2;Temp;Humidity;BMP_temperature;BMP_pressure;BME280_temperature;BME280_humidity;BME280_pressure;Samples;Min_cycle;Max_cycle;Signal;HPM_P1;HPM_P2
2023/09/11 00:01:00;;;;;;;9.00;6.97;;;;;;;;;;4974374;28;20696;-56
2023/09/11 00:03:27;;;;;;;8.03;7.33;;;;;;;;;;4973950;28;20199;-56
2023/09/11 00:06:02;;;;;;;8.33;7.63;;;;;;;;;;4974545;28;20217;-55
2023/09/11 00:08:28;;;;;;;7.40;6.77;;;;;;;;;;4973645;28;20559;-55
2023/09/11 00:10:54;;;;;;;7.93;7.23;;;;;;;;;;4954014;28;20206;-55
2023/09/11 00:13:20;;;;;;;9.20;8.30;;;;;;;;;;4953162;28;20213;-56
2023/09/11 00:15:46;;;;;;;9.03;8.00;;;;;;;;;;4954653;28;20202;-55
2023/09/11 00:18:12;;;;;;;9.30;8.50;;;;;;;;;;4954716;28;20226;-56
2023/09/11 00:20:40;;;;;;;8.77;8.07;;;;;;;;;;4954633;28;20207;-54
2023/09/11 00:23:08;;;;;;;8.40;7.70;;;;;;;;;;4954873;28;20206;-54
2023/09/11 00:25:34;;;;;;;8.10;7.43;;;;;;;;;;4954691;28;20628;-53
2023/09/11 00:28:00;;;;;;;7.63;7.03;;;;;;;;;;4954321;28;20250;-53
2023/09/11 00:30:26;;;;;;;8.20;7.50;;;;;;;;;;4954559;28;20202;-54
2023/09/11 00:32:52;;;;;;;7.90;7.20;;;;;;;;;;4954454;28;20592;-54
2023/09/11 00:35:18;;;;;;;8.50;7.77;;;;;;;;;;4954685;28;20238;-53
2023/09/11 00:37:45;;;;;;;8.10;7.40;;;;;;;;;;4954298;28;20442;-53
2023/09/11 00:40:11;;;;;;;8.30;7.50;;;;;;;;;;4954311;28;20602;-53
2023/09/11 00:42:37;;;;;;;7.97;7.20;;;;;;;;;;4954271;28;20209;-51
2023/09/11 00:45:04;;;;;;;7.33;6.63;;;;;;;;;;4954472;28;20225;-51
2023/09/11 00:47:30;;;;;;;9.07;7.33;;;;;;;;;;4954136;28;20210;-52
2023/09/11 00:49:57;;;;;;;7.57;6.87;;;;;;;;;;4954080;28;20257;-54
2023/09/11 00:52:23;;;;;;;7.37;6.67;;;;;;;;;;4954161;28;20580;-54
2023/09/11 00:54:51;;;;;;;7.60;6.93;;;;;;;;;;4954033;28;20874;-54
2023/09/11 00:57:18;;;;;;;7.67;7.07;;;;;;;;;;4954019;28;20253;-52
2023/09/11 00:59:44;;;;;;;7.50;6.90;;;;;;;;;;4953819;28;20665;-52
2023/09/11 01:02:11;;;;;;;7.63;6.93;;;;;;;;;;4953962;28;20614;-52
2023/09/11 01:04:37;;;;;;;7.83;7.13;;;;;;;;;;4954036;28;20210;-52
2023/09/11 01:07:03;;;;;;;7.47;6.77;;;;;;;;;;4954033;28;20206;-53
2023/09/11 01:09:29;;;;;;;8.00;7.30;;;;;;;;;;4953826;28;20206;-53
2023/09/11 01:11:56;;;;;;;7.80;7.17;;;;;;;;;;4953652;28;20306;-53
2023/09/11 01:14:23;;;;;;;7.40;6.80;;;;;;;;;;4953794;28;20234;-53
2023/09/11 01:20:08;;;;;;;7.93;7.27;;;;;;;;;;4953504;29;20270;-53
2023/09/11 01:22:44;;;;;;;7.33;6.73;;;;;;;;;;4953786;28;20186;-53
2023/09/11 01:25:29;;;;;;;8.00;7.30;;;;;;;;;;4953547;28;20225;-53
2023/09/11 01:28:14;;;;;;;8.07;7.37;;;;;;;;;;4953458;28;20249;-53
2023/09/11 01:30:43;;;;;;;8.40;7.60;;;;;;;;;;4953502;28;20295;-53
2023/09/11 01:33:09;;;;;;;8.63;7.73;;;;;;;;;;4953526;28;20645;-52
2023/09/11 01:35:35;;;;;;;7.53;6.90;;;;;;;;;;4953468;28;20229;-52
2023/09/11 01:38:01;;;;;;;7.40;6.80;;;;;;;;;;4953463;28;20212;-52
2023/09/11 01:40:29;;;;;;;7.63;6.93;;;;;;;;;;4953389;28;20554;-52
2023/09/11 01:42:57;;;;;;;7.63;6.93;;;;;;;;;;4953190;28;20632;-52
2023/09/11 01:45:24;;;;;;;7.53;6.90;;;;;;;;;;4953591;28;20565;-52
2023/09/11 01:47:52;;;;;;;8.10;7.40;;;;;;;;;;4953406;28;20723;-53
2023/09/11 01:50:19;;;;;;;7.63;7.03;;;;;;;;;;4953635;28;20225;-52
2023/09/11 01:52:48;;;;;;;7.23;6.63;;;;;;;;;;4953106;28;20256;-52
2023/09/11 01:55:14;;;;;;;7.80;7.03;;;;;;;;;;4953189;28;20228;-52
2023/09/11 01:57:41;;;;;;;8.03;7.33;;;;;;;;;;4952938;28;20211;-52
2023/09/11 02:00:08;;;;;;;8.17;6.97;;;;;;;;;;4953105;28;20216;-52
2023/09/11 02:02:34;;;;;;;7.70;7.00;;;;;;;;;;4953343;28;20199;-53
2023/09/11 02:05:01;;;;;;;8.17;7.47;;;;;;;;;;4953135;28;20206;-52
2023/09/11 02:07:27;;;;;;;7.70;7.10;;;;;;;;;;4953076;28;20261;-53
2023/09/11 02:09:53;;;;;;;8.00;7.30;;;;;;;;;;4953264;28;20205;-53
2023/09/11 02:12:19;;;;;;;7.90;7.20;;;;;;;;;;4953175;28;20557;-53
2023/09/11 02:14:45;;;;;;;7.67;6.97;;;;;;;;;;4952800;28;20233;-53
2023/09/11 02:17:11;;;;;;;7.67;7.07;;;;;;;;;;4952928;28;20293;-53
2023/09/11 02:19:38;;;;;;;8.00;7.17;;;;;;;;;;4953027;28;20201;-53
2023/09/11 02:22:05;;;;;;;7.57;6.97;;;;;;;;;;4953312;28;20202;-53
2023/09/11 02:24:31;;;;;;;8.17;7.47;;;;;;;;;;4952986;28;20260;-53
2023/09/11 02:26:57;;;;;;;7.70;7.00;;;;;;;;;;4952689;28;20245;-52
2023/09/11 02:29:23;;;;;;;7.60;6.90;;;;;;;;;;4968847;28;20207;-53
2023/09/11 02:31:49;;;;;;;8.30;7.60;;;;;;;;;;4972461;28;20205;-53
2023/09/11 02:34:15;;;;;;;8.07;7.37;;;;;;;;;;4972111;28;20255;-53
2023/09/11 02:36:41;;;;;;;8.10;7.30;;;;;;;;;;4972058;28;20192;-53
2023/09/11 02:39:09;;;;;;;8.27;7.57;;;;;;;;;;4972379;28;20284;-53
2023/09/11 02:41:35;;;;;;;8.20;7.40;;;;;;;;;;4972408;28;20234;-53
2023/09/11 02:44:01;;;;;;;8.03;7.33;;;;;;;;;;4972196;28;20197;-54
2023/09/11 02:46:27;;;;;;;8.43;7.73;;;;;;;;;;4972177;28;20398;-54
2023/09/11 02:48:53;;;;;;;8.87;7.97;;;;;;;;;;4972053;28;20721;-54
2023/09/11 02:51:19;;;;;;;7.90;7.20;;;;;;;;;;4972192;28;20203;-54
2023/09/11 02:53:45;;;;;;;9.77;8.10;;;;;;;;;;4971844;28;20224;-52
2023/09/11 02:56:12;;;;;;;8.17;7.37;;;;;;;;;;4972165;28;20673;-52
2023/09/11 02:58:38;;;;;;;8.33;7.63;;;;;;;;;;4971974;28;20209;-52
2023/09/11 03:01:05;;;;;;;8.13;7.43;;;;;;;;;;4972124;28;20565;-52
2023/09/11 03:03:31;;;;;;;8.27;7.57;;;;;;;;;;4972031;28;20199;-53
2023/09/11 03:05:57;;;;;;;7.70;7.00;;;;;;;;;;4971771;28;20610;-54
2023/09/11 03:08:23;;;;;;;7.67;7.07;;;;;;;;;;4971995;28;20649;-52
2023/09/11 03:10:49;;;;;;;7.77;7.07;;;;;;;;;;4972906;28;20203;-52
2023/09/11 03:13:17;;;;;;;7.70;7.10;;;;;;;;;;4975206;28;20259;-52
2023/09/11 03:15:43;;;;;;;8.20;7.50;;;;;;;;;;4975033;28;20225;-53
2023/09/11 03:18:09;;;;;;;8.20;7.50;;;;;;;;;;4975266;28;20208;-52
2023/09/11 03:20:35;;;;;;;8.57;7.77;;;;;;;;;;4975306;28;20199;-52
2023/09/11 03:23:01;;;;;;;8.90;7.87;;;;;;;;;;4975010;28;20203;-53
2023/09/11 03:25:27;;;;;;;8.07;7.37;;;;;;;;;;4974936;28;20212;-52
2023/09/11 03:27:53;;;;;;;8.43;7.73;;;;;;;;;;4974819;28;20597;-52
2023/09/11 03:30:21;;;;;;;8.80;8.10;;;;;;;;;;4975170;28;20204;-52
2023/09/11 03:32:47;;;;;;;8.17;7.50;;;;;;;;;;4974870;28;20199;-52
2023/09/11 03:35:13;;;;;;;8.07;7.43;;;;;;;;;;4974841;28;20238;-52
2023/09/11 03:37:39;;;;;;;9.13;8.30;;;;;;;;;;4974762;28;20207;-52
2023/09/11 03:40:07;;;;;;;7.87;7.20;;;;;;;;;;4974914;28;20253;-52
2023/09/11 03:42:33;;;;;;;8.47;7.77;;;;;;;;;;4974987;28;20201;-52
2023/09/11 03:45:00;;;;;;;8.10;7.50;;;;;;;;;;4974568;28;20203;-53
2023/09/11 03:47:27;;;;;;;8.43;7.67;;;;;;;;;;4974597;28;20238;-52
2023/09/11 03:49:53;;;;;;;7.90;7.20;;;;;;;;;;4974773;28;20211;-52
2023/09/11 03:52:19;;;;;;;7.83;7.03;;;;;;;;;;4974696;28;20282;-53
2023/09/11 03:54:45;;;;;;;8.03;7.33;;;;;;;;;;4974308;28;20321;-52
2023/09/11 03:57:11;;;;;;;8.00;7.30;;;;;;;;;;4974394;28;20203;-52
2023/09/11 03:59:37;;;;;;;8.50;7.80;;;;;;;;;;4974532;28;20652;-52
2023/09/11 04:02:03;;;;;;;9.40;8.60;;;;;;;;;;4974719;28;20192;-52
2023/09/11 04:04:30;;;;;;;9.57;8.67;;;;;;;;;;4974304;28;20202;-53
2023/09/11 04:06:56;;;;;;;9.63;8.70;;;;;;;;;;4974113;28;20207;-53
2023/09/11 04:09:23;;;;;;;8.83;8.03;;;;;;;;;;4974673;28;20251;-52
2023/09/11 04:11:49;;;;;;;9.17;8.33;;;;;;;;;;4974068;28;20202;-53
2023/09/11 04:14:15;;;;;;;9.30;8.50;;;;;;;;;;4973990;28;20759;-51
2023/09/11 04:16:41;;;;;;;9.03;8.23;;;;;;;;;;4974186;28;20211;-52
2023/09/11 04:19:07;;;;;;;8.40;7.70;;;;;;;;;;4974125;28;20202;-53
2023/09/11 04:21:34;;;;;;;8.80;8.00;;;;;;;;;;4973829;28;20200;-52
2023/09/11 04:24:00;;;;;;;8.80;8.10;;;;;;;;;;4973885;28;20691;-53
2023/09/11 04:26:28;;;;;;;8.20;7.50;;;;;;;;;;4973695;28;20336;-52
2023/09/11 04:28:54;;;;;;;8.50;7.70;;;;;;;;;;4973519;28;20248;-53
2023/09/11 04:31:20;;;;;;;8.70;8.00;;;;;;;;;;4973991;28;20200;-53
2023/09/11 04:33:46;;;;;;;9.00;8.10;;;;;;;;;;4973878;28;20208;-53
2023/09/11 04:36:12;;;;;;;9.40;8.47;;;;;;;;;;4973591;28;20277;-53
2023/09/11 04:38:40;;;;;;;8.97;8.13;;;;;;;;;;4973687;28;20226;-53
2023/09/11 04:41:06;;;;;;;9.43;8.53;;;;;;;;;;4973711;28;20200;-53
2023/09/11 04:43:32;;;;;;;9.23;8.40;;;;;;;;;;4973707;28;20195;-54
2023/09/11 04:45:58;;;;;;;9.17;8.27;;;;;;;;;;4973359;28;20209;-53
2023/09/11 04:48:24;;;;;;;9.37;8.37;;;;;;;;;;4973320;28;20204;-53
2023/09/11 04:50:50;;;;;;;9.03;8.23;;;;;;;;;;4973685;28;20231;-53
2023/09/11 04:53:16;;;;;;;8.93;8.20;;;;;;;;;;4973110;28;20196;-53
2023/09/11 04:55:44;;;;;;;9.63;8.70;;;;;;;;;;4972071;28;20261;-54
2023/09/11 04:58:10;;;;;;;9.77;8.87;;;;;;;;;;4973105;28;20542;-54
2023/09/11 05:00:36;;;;;;;9.73;8.80;;;;;;;;;;4973480;28;20281;-51
2023/09/11 05:03:02;;;;;;;9.60;8.73;;;;;;;;;;4973378;28;20287;-52
2023/09/11 05:05:28;;;;;;;9.20;8.40;;;;;;;;;;4973183;28;20195;-53
2023/09/11 05:07:54;;;;;;;9.13;8.40;;;;;;;;;;4973167;28;20273;-53
2023/09/11 05:10:20;;;;;;;9.47;8.57;;;;;;;;;;4973268;28;20206;-53
2023/09/11 05:12:48;;;;;;;9.87;8.97;;;;;;;;;;4972724;28;20665;-53
2023/09/11 05:15:14;;;;;;;10.00;9.20;;;;;;;;;;4972773;28;20281;-53
2023/09/11 05:17:40;;;;;;;9.80;8.83;;;;;;;;;;4972502;28;20596;-53
2023/09/11 05:20:06;;;;;;;9.73;8.83;;;;;;;;;;4972980;28;20578;-53
2023/09/11 05:22:33;;;;;;;9.93;9.03;;;;;;;;;;4972709;28;20223;-53
2023/09/11 05:25:00;;;;;;;10.40;9.43;;;;;;;;;;4972714;28;20231;-53
2023/09/11 05:27:25;;;;;;;9.90;8.77;;;;;;;;;;4972614;28;20243;-53
2023/09/11 05:29:53;;;;;;;9.50;8.60;;;;;;;;;;4972871;28;20250;-53
2023/09/11 05:32:20;;;;;;;9.73;8.83;;;;;;;;;;4972938;28;20204;-53
2023/09/11 05:34:46;;;;;;;9.47;8.63;;;;;;;;;;4972182;28;20227;-53
2023/09/11 05:37:12;;;;;;;10.50;9.50;;;;;;;;;;4972508;28;20290;-53
2023/09/11 05:39:38;;;;;;;10.37;9.37;;;;;;;;;;4972786;28;20234;-53
2023/09/11 05:42:04;;;;;;;12.67;10.00;;;;;;;;;;4972621;28;20633;-54
2023/09/11 05:44:30;;;;;;;10.57;9.70;;;;;;;;;;4972320;28;20651;-54
2023/09/11 05:46:58;;;;;;;10.40;9.40;;;;;;;;;;4972362;28;20670;-53
2023/09/11 05:49:25;;;;;;;11.47;10.37;;;;;;;;;;4972387;28;20747;-54
2023/09/11 05:51:51;;;;;;;10.97;9.97;;;;;;;;;;4972441;28;20203;-54
2023/09/11 05:54:17;;;;;;;10.60;9.70;;;;;;;;;;4972314;28;20319;-52
2023/09/11 05:56:43;;;;;;;11.80;10.63;;;;;;;;;;4972316;28;20558;-51
2023/09/11 05:59:09;;;;;;;14.27;10.73;;;;;;;;;;4972453;28;20283;-54
2023/09/11 06:01:35;;;;;;;11.30;10.30;;;;;;;;;;4972585;28;20263;-52
2023/09/11 06:04:03;;;;;;;11.13;10.13;;;;;;;;;;4972528;28;20204;-52
2023/09/11 06:06:30;;;;;;;10.63;9.73;;;;;;;;;;4972343;28;20616;-52
2023/09/11 06:08:57;;;;;;;11.00;10.03;;;;;;;;;;4972262;28;20620;-52
2023/09/11 06:11:23;;;;;;;11.50;10.40;;;;;;;;;;4972310;28;20206;-52
2023/09/11 06:13:49;;;;;;;11.03;10.03;;;;;;;;;;4972353;28;20299;-52
2023/09/11 06:16:15;;;;;;;12.77;11.47;;;;;;;;;;4972176;28;20204;-52
2023/09/11 06:18:41;;;;;;;11.03;10.03;;;;;;;;;;4972256;28;20610;-52
2023/09/11 06:21:09;;;;;;;13.53;12.00;;;;;;;;;;4972355;28;20699;-52
2023/09/11 06:23:35;;;;;;;12.70;11.50;;;;;;;;;;4972462;28;20627;-52
2023/09/11 06:26:01;;;;;;;11.60;10.57;;;;;;;;;;4971993;28;20253;-52
2023/09/11 06:28:27;;;;;;;10.70;9.60;;;;;;;;;;4972039;28;20357;-52
2023/09/11 06:30:54;;;;;;;11.43;10.43;;;;;;;;;;4972152;28;20211;-52
2023/09/11 06:33:20;;;;;;;11.70;10.50;;;;;;;;;;4972249;28;20244;-53
2023/09/11 06:35:46;;;;;;;10.90;9.80;;;;;;;;;;4971860;28;20280;-52
2023/09/11 06:38:13;;;;;;;10.87;9.73;;;;;;;;;;4972112;28;20679;-52
2023/09/11 06:40:39;;;;;;;10.07;9.17;;;;;;;;;;4971813;28;20207;-52
2023/09/11 06:43:05;;;;;;;9.60;8.60;;;;;;;;;;4972104;28;20213;-52
2023/09/11 06:45:33;;;;;;;9.70;8.90;;;;;;;;;;4974090;28;20209;-52
2023/09/11 06:47:59;;;;;;;9.60;8.73;;;;;;;;;;4975857;28;20199;-52
2023/09/11 06:50:26;;;;;;;9.77;8.80;;;;;;;;;;4975525;28;20205;-53
2023/09/11 06:52:52;;;;;;;9.57;8.73;;;;;;;;;;4975613;28;20668;-52
2023/09/11 06:55:20;;;;;;;8.93;8.13;;;;;;;;;;4975584;28;20227;-52
2023/09/11 06:57:55;;;;;;;9.83;8.80;;;;;;;;;;4975549;28;20591;-52
2023/09/11 07:00:21;;;;;;;11.23;9.47;;;;;;;;;;4975729;28;20253;-52
2023/09/11 07:02:48;;;;;;;10.33;9.33;;;;;;;;;;4975441;28;20704;-52
2023/09/11 07:05:14;;;;;;;9.57;8.33;;;;;;;;;;4975452;28;20294;-52
2023/09/11 07:07:40;;;;;;;12.27;10.27;;;;;;;;;;4975416;28;20242;-52
2023/09/11 07:10:07;;;;;;;11.77;10.67;;;;;;;;;;4975367;28;20302;-51
2023/09/11 07:12:34;;;;;;;13.53;9.33;;;;;;;;;;4975343;28;20207;-51
2023/09/11 07:15:00;;;;;;;10.90;9.70;;;;;;;;;;4975035;28;20222;-51
2023/09/11 07:17:26;;;;;;;11.03;9.70;;;;;;;;;;4975157;28;20209;-51
2023/09/11 07:19:52;;;;;;;10.80;9.80;;;;;;;;;;4975081;28;20656;-51
2023/09/11 07:22:18;;;;;;;11.80;10.20;;;;;;;;;;4975267;28;20210;-51
2023/09/11 07:24:44;;;;;;;11.63;10.20;;;;;;;;;;4974973;28;20239;-52
2023/09/11 07:27:10;;;;;;;10.00;9.00;;;;;;;;;;4974556;28;20640;-56
2023/09/11 07:29:38;;;;;;;10.97;9.27;;;;;;;;;;4975170;28;20226;-54
2023/09/11 07:32:04;;;;;;;9.97;9.07;;;;;;;;;;4974898;28;20203;-56
2023/09/11 07:34:30;;;;;;;10.73;8.13;;;;;;;;;;4974716;28;20270;-57
2023/09/11 07:36:57;;;;;;;8.87;7.97;;;;;;;;;;4974814;28;20657;-54
2023/09/11 07:39:23;;;;;;;9.90;8.37;;;;;;;;;;4974906;28;20195;-54
2023/09/11 07:41:49;;;;;;;16.43;9.70;;;;;;;;;;4974666;28;20191;-53
2023/09/11 07:44:15;;;;;;;10.40;8.87;;;;;;;;;;4974799;28;20207;-53
2023/09/11 07:46:43;;;;;;;9.93;8.83;;;;;;;;;;4974505;28;20574;-54
2023/09/11 07:49:09;;;;;;;9.40;8.50;;;;;;;;;;4974515;28;20294;-54
2023/09/11 07:51:35;;;;;;;11.47;8.77;;;;;;;;;;4974707;28;20202;-54
2023/09/11 07:54:01;;;;;;;9.13;8.23;;;;;;;;;;4974294;28;20199;-54
2023/09/11 07:56:27;;;;;;;8.90;8.00;;;;;;;;;;4973510;28;20319;-53
2023/09/11 07:58:54;;;;;;;9.87;7.90;;;;;;;;;;4974384;28;20299;-54
2023/09/11 08:01:21;;;;;;;14.27;7.97;;;;;;;;;;4974283;28;20203;-55
2023/09/11 08:03:49;;;;;;;9.63;7.93;;;;;;;;;;4974194;28;20575;-55
2023/09/11 08:06:15;;;;;;;10.17;7.33;;;;;;;;;;4974269;28;20306;-55
2023/09/11 08:08:41;;;;;;;10.70;6.73;;;;;;;;;;4974205;28;20664;-55
2023/09/11 08:11:13;;;;;;;7.17;6.40;;;;;;;;;;4974123;28;20194;-55
2023/09/11 08:13:39;;;;;;;13.10;7.07;;;;;;;;;;4974122;28;20208;-55
2023/09/11 08:16:05;;;;;;;7.90;6.73;;;;;;;;;;4973996;28;20236;-55
2023/09/11 08:18:31;;;;;;;15.57;6.10;;;;;;;;;;4973702;28;20666;-55
2023/09/11 08:20:59;;;;;;;8.10;6.13;;;;;;;;;;4973766;28;20295;-55
2023/09/11 08:23:25;;;;;;;13.43;6.60;;;;;;;;;;4973914;28;20236;-55
2023/09/11 08:25:55;;;;;;;11.93;6.37;;;;;;;;;;4973710;28;20245;-55
2023/09/11 08:28:21;;;;;;;10.77;6.07;;;;;;;;;;4973733;28;20245;-55
2023/09/11 08:30:47;;;;;;;11.60;6.20;;;;;;;;;;4973819;28;20296;-55
2023/09/11 08:33:13;;;;;;;13.30;5.70;;;;;;;;;;4973599;28;20198;-55
2023/09/11 08:35:39;;;;;;;11.13;5.97;;;;;;;;;;4973659;28;20262;-55
2023/09/11 08:38:07;;;;;;;8.23;5.63;;;;;;;;;;4973715;28;20209;-54
2023/09/11 08:40:33;;;;;;;9.53;6.27;;;;;;;;;;4967769;28;20225;-55
2023/09/11 08:42:59;;;;;;;8.90;5.10;;;;;;;;;;4985334;28;20699;-55
2023/09/11 08:45:25;;;;;;;12.47;5.40;;;;;;;;;;4992840;28;20691;-54
2023/09/11 08:47:55;;;;;;;12.77;6.30;;;;;;;;;;4992879;28;20206;-54
2023/09/11 08:50:22;;;;;;;12.20;5.47;;;;;;;;;;4992977;28;20202;-55
2023/09/11 08:52:49;;;;;;;12.87;6.40;;;;;;;;;;4992593;28;20203;-55
2023/09/11 08:55:18;;;;;;;14.23;5.63;;;;;;;;;;4992677;28;20593;-54
2023/09/11 08:57:45;;;;;;;8.00;5.30;;;;;;;;;;4992443;28;20208;-54
2023/09/11 09:00:13;;;;;;;9.20;5.87;;;;;;;;;;4992507;28;20703;-54
2023/09/11 09:02:39;;;;;;;10.17;5.77;;;;;;;;;;4992516;28;20210;-53
2023/09/11 09:05:06;;;;;;;12.30;6.53;;;;;;;;;;4992362;28;20684;-53
2023/09/11 09:07:33;;;;;;;11.00;5.60;;;;;;;;;;4992201;28;20199;-54
2023/09/11 09:09:59;;;;;;;12.67;6.00;;;;;;;;;;4991641;28;20307;-54
2023/09/11 09:12:27;;;;;;;11.40;6.00;;;;;;;;;;4992524;28;20208;-54
2023/09/11 09:14:53;;;;;;;11.17;5.60;;;;;;;;;;4992001;28;20752;-55
2023/09/11 09:17:19;;;;;;;15.33;6.10;;;;;;;;;;4992496;28;20208;-55
2023/09/11 09:19:45;;;;;;;13.07;5.53;;;;;;;;;;4992215;28;20201;-55
2023/09/11 09:22:15;;;;;;;14.50;5.60;;;;;;;;;;4992079;28;20542;-54
2023/09/11 09:24:48;;;;;;;10.03;5.13;;;;;;;;;;4955709;28;20618;-55
2023/09/11 09:27:14;;;;;;;11.10;5.83;;;;;;;;;;4953246;28;20301;-55
2023/09/11 09:29:41;;;;;;;10.40;5.33;;;;;;;;;;4953306;28;20215;-55
2023/09/11 09:32:08;;;;;;;11.00;5.30;;;;;;;;;;4953311;28;20550;-55
2023/09/11 09:34:35;;;;;;;9.50;5.27;;;;;;;;;;4953399;28;20224;-55
2023/09/11 09:37:01;;;;;;;8.73;5.43;;;;;;;;;;4953202;28;20204;-55
2023/09/11 09:39:28;;;;;;;14.43;5.87;;;;;;;;;;4953020;28;20200;-55
2023/09/11 09:41:55;;;;;;;15.30;5.47;;;;;;;;;;4953099;28;20230;-54
2023/09/11 09:44:30;;;;;;;11.90;5.97;;;;;;;;;;4953569;28;20196;-55
2023/09/11 09:47:05;;;;;;;15.73;5.20;;;;;;;;;;4952787;28;20209;-55
2023/09/11 09:49:33;;;;;;;15.93;5.63;;;;;;;;;;4951299;28;20209;-55
2023/09/11 09:51:59;;;;;;;11.53;5.30;;;;;;;;;;4951323;28;20202;-55
2023/09/11 09:54:40;;;;;;;13.47;5.87;;;;;;;;;;4952963;28;20593;-54
2023/09/11 09:57:09;;;;;;;15.73;5.37;;;;;;;;;;4952856;28;20286;-55
2023/09/11 09:59:35;;;;;;;17.93;5.63;;;;;;;;;;4953204;28;20667;-55
2023/09/11 10:02:02;;;;;;;16.27;5.67;;;;;;;;;;4952976;28;20271;-55
2023/09/11 10:04:31;;;;;;;13.13;5.90;;;;;;;;;;4953087;28;20198;-55
2023/09/11 10:06:58;;;;;;;15.67;6.00;;;;;;;;;;4952852;28;20205;-55
2023/09/11 10:09:24;;;;;;;15.77;5.40;;;;;;;;;;4953254;28;20205;-55
2023/09/11 10:11:51;;;;;;;15.67;5.17;;;;;;;;;;4953029;28;20291;-55
2023/09/11 10:14:18;;;;;;;12.63;5.33;;;;;;;;;;4952835;28;20200;-55
2023/09/11 10:16:45;;;;;;;16.87;5.43;;;;;;;;;;4953114;28;20199;-55
2023/09/11 10:19:13;;;;;;;13.97;5.60;;;;;;;;;;4952786;28;20293;-55
2023/09/11 10:21:39;;;;;;;17.93;5.77;;;;;;;;;;4955643;28;20198;-55
2023/09/11 10:24:08;;;;;;;15.77;5.20;;;;;;;;;;4956905;28;20262;-55
2023/09/11 10:26:37;;;;;;;17.83;4.93;;;;;;;;;;4956600;28;20637;-55
2023/09/11 10:29:03;;;;;;;12.87;5.40;;;;;;;;;;4956696;28;20199;-55
2023/09/11 10:31:32;;;;;;;18.37;5.30;;;;;;;;;;4956851;28;20203;-55
2023/09/11 10:34:00;;;;;;;21.33;5.40;;;;;;;;;;4956511;28;20227;-55
2023/09/11 10:36:30;;;;;;;16.73;5.37;;;;;;;;;;4956427;28;20658;-56
2023/09/11 10:38:59;;;;;;;15.40;4.70;;;;;;;;;;4956330;28;20206;-55
2023/09/11 10:41:25;;;;;;;19.40;4.87;;;;;;;;;;4956412;28;20240;-56
2023/09/11 10:43:51;;;;;;;13.50;4.90;;;;;;;;;;4956483;28;20199;-55
2023/09/11 10:46:31;;;;;;;15.67;5.10;;;;;;;;;;4956410;28;20209;-55
2023/09/11 10:48:58;;;;;;;15.33;5.20;;;;;;;;;;4961166;28;20236;-53
2023/09/11 10:51:24;;;;;;;12.47;5.13;;;;;;;;;;4995137;28;20293;-53
2023/09/11 10:53:52;;;;;;;12.10;5.17;;;;;;;;;;4995202;28;20301;-54
2023/09/11 10:56:18;;;;;;;17.53;5.27;;;;;;;;;;4994647;28;20225;-53
2023/09/11 10:58:44;;;;;;;15.57;5.20;;;;;;;;;;4994823;28;20645;-54
2023/09/11 11:01:13;;;;;;;13.53;5.40;;;;;;;;;;4994691;28;20217;-54
2023/09/11 11:03:39;;;;;;;14.30;5.33;;;;;;;;;;4994768;28;20612;-53
2023/09/11 11:06:09;;;;;;;14.57;5.30;;;;;;;;;;4994702;28;20203;-53
2023/09/11 11:08:36;;;;;;;18.67;5.53;;;;;;;;;;4994959;28;20665;-53
2023/09/11 11:11:04;;;;;;;20.77;5.53;;;;;;;;;;4994251;28;20227;-53
2023/09/11 11:13:30;;;;;;;14.23;5.00;;;;;;;;;;4994625;28;20210;-54
2023/09/11 11:16:14;;;;;;;16.27;5.53;;;;;;;;;;4994330;28;20280;-53
2023/09/11 11:18:40;;;;;;;16.63;4.93;;;;;;;;;;4994176;28;20267;-53
2023/09/11 11:21:07;;;;;;;18.53;5.13;;;;;;;;;;4994491;28;20200;-54
2023/09/11 11:23:34;;;;;;;17.50;4.90;;;;;;;;;;4994566;28;20233;-54
2023/09/11 11:26:00;;;;;;;15.27;4.90;;;;;;;;;;4993616;28;20217;-54
2023/09/11 11:28:37;;;;;;;11.37;4.57;;;;;;;;;;4994060;28;20709;-54
2023/09/11 11:31:04;;;;;;;14.30;4.67;;;;;;;;;;4993436;28;20298;-54
2023/09/11 11:33:33;;;;;;;16.60;5.23;;;;;;;;;;4993854;28;20206;-55
2023/09/11 11:35:59;;;;;;;10.90;4.20;;;;;;;;;;4993830;28;20262;-54
2023/09/11 11:38:25;;;;;;;18.90;5.27;;;;;;;;;;4994233;28;20217;-55
2023/09/11 11:40:52;;;;;;;24.00;5.47;;;;;;;;;;4994051;28;20267;-54
2023/09/11 11:43:18;;;;;;;18.47;5.13;;;;;;;;;;4993774;28;20199;-54
2023/09/11 11:45:49;;;;;;;17.13;4.80;;;;;;;;;;4994049;28;20196;-54
2023/09/11 11:48:15;;;;;;;14.70;4.83;;;;;;;;;;4993752;28;20289;-54
2023/09/11 11:50:42;;;;;;;12.53;4.90;;;;;;;;;;4993979;28;20219;-54
2023/09/11 11:53:08;;;;;;;12.03;4.50;;;;;;;;;;4990196;28;20209;-54
2023/09/11 11:55:34;;;;;;;17.00;4.40;;;;;;;;;;4993870;28;20319;-55
2023/09/11 11:58:00;;;;;;;9.23;4.37;;;;;;;;;;4993821;28;20200;-55
2023/09/11 12:00:26;;;;;;;18.60;4.60;;;;;;;;;;4993851;28;20197;-55
2023/09/11 12:03:01;;;;;;;14.13;3.93;;;;;;;;;;4993755;28;20672;-55
2023/09/11 12:05:28;;;;;;;11.47;4.60;;;;;;;;;;4993768;28;20199;-55
2023/09/11 12:07:54;;;;;;;8.40;4.50;;;;;;;;;;4993766;28;20209;-57
2023/09/11 12:10:20;;;;;;;16.23;4.77;;;;;;;;;;4993543;28;20566;-55
2023/09/11 12:12:46;;;;;;;14.43;4.50;;;;;;;;;;4993467;28;20198;-53
2023/09/11 12:15:12;;;;;;;12.30;4.50;;;;;;;;;;4993292;28;20263;-54
2023/09/11 12:17:44;;;;;;;11.67;4.37;;;;;;;;;;4993686;28;20722;-54
2023/09/11 12:20:13;;;;;;;13.90;4.97;;;;;;;;;;4993604;28;20273;-53
2023/09/11 12:22:39;;;;;;;11.63;4.63;;;;;;;;;;4993524;28;20218;-54
2023/09/11 12:25:05;;;;;;;10.90;4.65;;;;;;;;;;4993199;28;20208;-54
2023/09/11 12:27:31;;;;;;;13.17;3.97;;;;;;;;;;4993437;28;20296;-55
2023/09/11 12:29:57;;;;;;;12.07;4.22;;;;;;;;;;4993449;28;20569;-54
2023/09/11 12:32:23;;;;;;;11.80;5.20;;;;;;;;;;4974052;28;20207;-55
2023/09/11 12:34:50;;;;;;;12.82;4.65;;;;;;;;;;4974227;28;20313;-55
2023/09/11 12:37:17;;;;;;;16.40;4.65;;;;;;;;;;4971840;28;20191;-55
2023/09/11 12:39:43;;;;;;;13.88;4.43;;;;;;;;;;4972988;28;20652;-55
2023/09/11 12:42:09;;;;;;;12.50;4.45;;;;;;;;;;4972963;28;20664;-55
2023/09/11 12:44:35;;;;;;;15.57;4.53;;;;;;;;;;4972125;28;20241;-55
2023/09/11 12:47:01;;;;;;;11.63;4.00;;;;;;;;;;4972953;28;20650;-55
2023/09/11 12:49:27;;;;;;;9.35;4.22;;;;;;;;;;4973164;28;20202;-55
2023/09/11 12:51:55;;;;;;;15.40;4.60;;;;;;;;;;4973096;28;20305;-55
2023/09/11 12:54:22;;;;;;;11.53;4.30;;;;;;;;;;4973226;28;20202;-55
2023/09/11 12:56:48;;;;;;;15.27;4.43;;;;;;;;;;4973306;28;20228;-55
2023/09/11 12:59:14;;;;;;;10.50;4.57;;;;;;;;;;4973116;28;20242;-55
2023/09/11 13:01:40;;;;;;;9.57;4.03;;;;;;;;;;4973138;28;20293;-55
2023/09/11 13:04:06;;;;;;;14.47;4.33;;;;;;;;;;4973172;28;20195;-55
2023/09/11 13:06:32;;;;;;;14.57;4.60;;;;;;;;;;4973063;28;20208;-55
2023/09/11 13:08:58;;;;;;;16.23;4.80;;;;;;;;;;4971601;28;20656;-55
2023/09/11 13:11:26;;;;;;;8.47;4.20;;;;;;;;;;4973239;28;20298;-55
2023/09/11 13:13:52;;;;;;;12.63;3.93;;;;;;;;;;4973533;28;20283;-55
2023/09/11 13:16:18;;;;;;;9.20;4.10;;;;;;;;;;4973307;28;20227;-55
2023/09/11 13:18:44;;;;;;;12.23;4.00;;;;;;;;;;4973403;28;20287;-55
2023/09/11 13:21:10;;;;;;;12.23;3.90;;;;;;;;;;4973139;28;20213;-55
2023/09/11 13:23:36;;;;;;;8.00;4.07;;;;;;;;;;4973454;28;20209;-55
2023/09/11 13:26:02;;;;;;;15.40;4.57;;;;;;;;;;4973115;28;20217;-55
2023/09/11 13:28:30;;;;;;;11.17;4.30;;;;;;;;;;4973079;28;20585;-55
2023/09/11 13:30:59;;;;;;;11.70;3.97;;;;;;;;;;4972917;28;20215;-55
2023/09/11 13:33:25;;;;;;;11.00;4.00;;;;;;;;;;4973024;28;20275;-55
2023/09/11 13:35:51;;;;;;;17.33;4.13;;;;;;;;;;4973071;28;20702;-55
2023/09/11 13:38:17;;;;;;;8.77;3.90;;;;;;;;;;4972969;28;20656;-55
2023/09/11 13:40:47;;;;;;;8.93;3.90;;;;;;;;;;4973050;28;20211;-55
2023/09/11 13:43:14;;;;;;;11.83;4.23;;;;;;;;;;4972894;28;20198;-55
2023/09/11 13:45:41;;;;;;;14.93;3.70;;;;;;;;;;4972838;28;20228;-55
2023/09/11 13:48:07;;;;;;;14.27;4.47;;;;;;;;;;4972561;28;20290;-55
2023/09/11 13:50:33;;;;;;;7.97;3.67;;;;;;;;;;4973093;28;20202;-55
2023/09/11 13:53:00;;;;;;;8.27;3.57;;;;;;;;;;4972611;28;20259;-55
2023/09/11 13:55:26;;;;;;;8.07;3.97;;;;;;;;;;4972316;28;20320;-55
2023/09/11 13:57:53;;;;;;;6.40;3.43;;;;;;;;;;4973040;28;20197;-55
2023/09/11 14:00:19;;;;;;;9.13;3.97;;;;;;;;;;4972973;28;20203;-55
2023/09/11 14:02:47;;;;;;;9.57;3.43;;;;;;;;;;4972489;28;20209;-55
2023/09/11 14:05:12;;;;;;;11.90;3.90;;;;;;;;;;4972654;28;20418;-55
2023/09/11 14:07:38;;;;;;;9.43;3.80;;;;;;;;;;4972862;28;20212;-55
2023/09/11 14:10:05;;;;;;;9.20;4.20;;;;;;;;;;4972600;28;20205;-55
2023/09/11 14:12:31;;;;;;;9.43;3.80;;;;;;;;;;4972662;28;20658;-55
2023/09/11 14:14:57;;;;;;;12.57;3.80;;;;;;;;;;4972521;28;20226;-55
2023/09/11 14:17:23;;;;;;;9.40;3.80;;;;;;;;;;4972598;28;20228;-55
2023/09/11 14:19:51;;;;;;;9.03;4.03;;;;;;;;;;4972848;28;20205;-55
2023/09/11 14:22:17;;;;;;;7.93;3.93;;;;;;;;;;4972522;28;20572;-55
2023/09/11 14:24:43;;;;;;;7.40;3.93;;;;;;;;;;4972496;28;20328;-55
2023/09/11 14:27:12;;;;;;;6.50;3.83;;;;;;;;;;4972254;28;20249;-54
2023/09/11 14:29:38;;;;;;;9.00;4.40;;;;;;;;;;4972583;28;20200;-55
2023/09/11 14:32:07;;;;;;;11.73;4.63;;;;;;;;;;4972622;28;20199;-55
2023/09/11 14:34:33;;;;;;;11.93;4.53;;;;;;;;;;4972525;28;20206;-55
2023/09/11 14:37:01;;;;;;;13.60;4.37;;;;;;;;;;4972431;28;20659;-55